createdAt,value
2019-04-29T00:00:02.510Z,101865.66
2019-04-29T00:02:33.892Z,101875.03
2019-04-29T00:05:02.831Z,101876.43
2019-04-29T00:07:31.713Z,101881.45
2019-04-29T00:10:00.629Z,101883.95
2019-04-29T00:12:29.528Z,101876.73
2019-04-29T00:15:26.247Z,101885.66
2019-04-29T00:18:07.723Z,101886.73
2019-04-29T00:20:45.809Z,101888.09
2019-04-29T00:23:14.721Z,101886.75
2019-04-29T00:25:43.707Z,101886.36
2019-04-29T00:28:12.687Z,101880.67
2019-04-29T00:30:41.599Z,101885.06
2019-04-29T00:33:10.520Z,101893.62
2019-04-29T00:35:39.444Z,101892.27
2019-04-29T00:38:39.578Z,101898.34
2019-04-29T00:41:27.326Z,101901.13
2019-04-29T00:43:58.536Z,101897.56
2019-04-29T00:46:27.483Z,101903.37
2019-04-29T00:48:56.420Z,101905.29
2019-04-29T00:51:25.305Z,101900.85
2019-04-29T00:53:56.992Z,101905.92
2019-04-29T00:56:25.969Z,101906.52
2019-04-29T00:58:54.851Z,101908.95
2019-04-29T01:01:24.570Z,101906.62
2019-04-29T01:03:53.431Z,101909.69
2019-04-29T01:06:22.360Z,101905.86
2019-04-29T01:08:51.374Z,101906.91
2019-04-29T01:11:20.211Z,101908.84
2019-04-29T01:13:49.123Z,101910.84
2019-04-29T01:16:18.043Z,101913.07
2019-04-29T01:18:46.971Z,101911.91
2019-04-29T01:21:15.881Z,101915.08
2019-04-29T01:23:44.768Z,101915.56
2019-04-29T01:26:35.385Z,101910.64
2019-04-29T01:29:04.357Z,101912.47
2019-04-29T01:31:33.267Z,101914.87
2019-04-29T01:34:11.576Z,101911.13
2019-04-29T01:36:42.331Z,101914.65
2019-04-29T01:39:11.291Z,101912.34
2019-04-29T01:42:17.158Z,101914.65
2019-04-29T01:44:46.061Z,101914.64
2019-04-29T01:47:14.991Z,101918.20
2019-04-29T01:49:43.964Z,101914.23
2019-04-29T01:52:12.849Z,101916.23
2019-04-29T01:54:41.790Z,101927.98
2019-04-29T01:57:10.731Z,101922.66
2019-04-29T01:59:39.793Z,101927.11
2019-04-29T02:02:08.736Z,101926.39
2019-04-29T02:04:37.656Z,101930.90
2019-04-29T02:07:06.579Z,101925.73
2019-04-29T02:09:38.641Z,101929.14
2019-04-29T02:12:07.585Z,101936.61
2019-04-29T02:14:36.490Z,101936.05
2019-04-29T02:17:05.407Z,101938.05
2019-04-29T02:19:34.380Z,101944.45
2019-04-29T02:22:12.445Z,101938.96
2019-04-29T02:24:43.776Z,101940.95
2019-04-29T02:27:12.734Z,101944.23
2019-04-29T02:29:41.627Z,101948.25
2019-04-29T02:32:10.564Z,101948.48
2019-04-29T02:34:39.490Z,101944.97
2019-04-29T02:37:08.446Z,101949.46
2019-04-29T02:39:59.110Z,101943.77
2019-04-29T02:42:45.550Z,101945.16
2019-04-29T02:45:20.594Z,101945.57
2019-04-29T02:47:49.504Z,101943.47
2019-04-29T02:50:18.428Z,101942.68
2019-04-29T02:52:47.323Z,101952.98
2019-04-29T02:55:18.196Z,101946.88
2019-04-29T02:58:05.561Z,101945.63
2019-04-29T03:00:59.318Z,101941.78
2019-04-29T03:03:46.487Z,101946.61
2019-04-29T03:06:15.409Z,101942.73
2019-04-29T03:08:44.312Z,101945.03
2019-04-29T03:11:13.254Z,101948.67
2019-04-29T03:13:42.164Z,101943.77
2019-04-29T03:16:11.070Z,101949.06
2019-04-29T03:18:43.543Z,101941.23
2019-04-29T03:21:17.773Z,101948.75
2019-04-29T03:23:46.698Z,101949.42
2019-04-29T03:26:15.647Z,101950.30
2019-04-29T03:28:44.569Z,101951.36
2019-04-29T03:31:13.486Z,101945.90
2019-04-29T03:33:42.424Z,101945.03
2019-04-29T03:36:11.320Z,101952.82
2019-04-29T03:38:40.246Z,101943.95
2019-04-29T03:41:09.138Z,101944.11
2019-04-29T03:43:38.059Z,101949.25
2019-04-29T03:46:06.942Z,101949.62
2019-04-29T03:48:35.851Z,101952.31
2019-04-29T03:51:04.740Z,101952.19
2019-04-29T03:53:33.649Z,101956.30
2019-04-29T03:56:02.558Z,101956.38
2019-04-29T03:58:31.464Z,101958.91
2019-04-29T04:01:09.507Z,101970.10
2019-04-29T04:03:48.496Z,101967.25
2019-04-29T04:06:28.100Z,101972.84
2019-04-29T04:09:18.706Z,101968.89
2019-04-29T04:11:47.621Z,101974.98
2019-04-29T04:14:16.531Z,101975.83
2019-04-29T04:17:20.219Z,101971.62
2019-04-29T04:19:45.901Z,101975.52
2019-04-29T04:22:14.797Z,101972.42
2019-04-29T04:24:43.713Z,101978.13
2019-04-29T04:27:12.683Z,101981.61
2019-04-29T04:29:41.528Z,101982.55
2019-04-29T04:32:10.432Z,101984.59
2019-04-29T04:34:39.342Z,101988.88
2019-04-29T04:37:08.257Z,101987.92
2019-04-29T04:39:37.159Z,101994.40
2019-04-29T04:42:06.134Z,101997.02
2019-04-29T04:44:50.040Z,101998.03
2019-04-29T04:47:19.486Z,102003.52
2019-04-29T04:49:48.468Z,102004.68
2019-04-29T04:52:17.382Z,102002.80
2019-04-29T04:54:46.569Z,102004.15
2019-04-29T04:57:15.492Z,102002.26
2019-04-29T04:59:44.383Z,102006.30
2019-04-29T05:02:13.299Z,102006.11
2019-04-29T05:04:42.195Z,102012.03
2019-04-29T05:07:11.129Z,102010.69
2019-04-29T05:09:40.027Z,102015.60
2019-04-29T05:12:08.966Z,102017.09
2019-04-29T05:14:37.881Z,102020.94
2019-04-29T05:17:06.820Z,102018.64
2019-04-29T05:19:35.737Z,102027.28
2019-04-29T05:22:04.645Z,102023.53
2019-04-29T05:24:33.537Z,102025.46
2019-04-29T05:27:02.459Z,102029.89
2019-04-29T05:29:31.349Z,102028.05
2019-04-29T05:32:00.265Z,102024.45
2019-04-29T05:34:29.173Z,102028.53
2019-04-29T05:37:13.582Z,102030.91
2019-04-29T05:39:42.529Z,102033.65
2019-04-29T05:42:16.046Z,102040.58
2019-04-29T05:44:49.983Z,102046.48
2019-04-29T05:47:25.807Z,102048.66
2019-04-29T05:50:16.890Z,102042.82
2019-04-29T05:52:51.861Z,102045.61
2019-04-29T05:55:20.791Z,102047.64
2019-04-29T05:57:49.696Z,102046.19
2019-04-29T06:00:22.929Z,102047.44
2019-04-29T06:02:47.556Z,102051.54
2019-04-29T06:05:16.479Z,102053.89
2019-04-29T06:07:45.413Z,102054.87
2019-04-29T06:10:18.121Z,102054.17
2019-04-29T06:12:44.591Z,102060.00
2019-04-29T06:15:12.252Z,102054.66
2019-04-29T06:17:44.707Z,102051.08
2019-04-29T06:20:13.068Z,102053.52
2019-04-29T06:22:41.915Z,102056.77
2019-04-29T06:25:08.012Z,102057.23
2019-04-29T06:27:36.840Z,102056.13
2019-04-29T06:30:06.537Z,102053.87
2019-04-29T06:32:35.394Z,102054.91
2019-04-29T06:35:04.471Z,102051.33
2019-04-29T06:37:33.467Z,102052.38
2019-04-29T06:40:02.304Z,102053.10
2019-04-29T06:42:33.436Z,102059.70
2019-04-29T06:45:00.146Z,102066.73
2019-04-29T06:47:29.042Z,102066.02
2019-04-29T06:49:57.957Z,102069.86
2019-04-29T06:52:26.864Z,102069.16
2019-04-29T06:54:55.788Z,102068.13
2019-04-29T06:57:27.500Z,102068.00
2019-04-29T06:59:56.387Z,102063.05
2019-04-29T07:02:25.308Z,102068.53
2019-04-29T07:04:54.213Z,102064.58
2019-04-29T07:07:23.144Z,102068.73
2019-04-29T07:09:52.073Z,102068.34
2019-04-29T07:12:21.055Z,102062.26
2019-04-29T07:14:50.049Z,102066.76
2019-04-29T07:17:18.890Z,102070.14
2019-04-29T07:19:47.889Z,102072.39
2019-04-29T07:22:20.872Z,102071.61
2019-04-29T07:24:45.677Z,102069.88
2019-04-29T07:27:14.640Z,102069.12
2019-04-29T07:29:43.593Z,102074.41
2019-04-29T07:32:12.490Z,102073.13
2019-04-29T07:34:41.416Z,102071.39
2019-04-29T07:37:10.439Z,102080.55
2019-04-29T07:39:39.363Z,102071.68
2019-04-29T07:42:08.249Z,102072.53
2019-04-29T07:44:48.900Z,102074.88
2019-04-29T07:47:15.143Z,102075.95
2019-04-29T07:49:47.385Z,102079.92
2019-04-29T07:52:14.585Z,102073.32
2019-04-29T07:54:41.862Z,102073.87
2019-04-29T07:57:12.428Z,102071.41
2019-04-29T07:59:39.747Z,102070.24
2019-04-29T08:02:08.617Z,102068.86
2019-04-29T08:04:40.301Z,102060.03
2019-04-29T08:07:06.463Z,102066.99
2019-04-29T08:09:35.457Z,102072.55
2019-04-29T08:12:04.479Z,102071.23
2019-04-29T08:14:33.338Z,102070.02
2019-04-29T08:17:02.273Z,102071.55
2019-04-29T08:19:31.641Z,102069.52
2019-04-29T08:22:00.139Z,102072.62
2019-04-29T08:24:29.087Z,102072.81
2019-04-29T08:26:58.007Z,102070.80
2019-04-29T08:29:30.786Z,102069.16
2019-04-29T08:31:57.134Z,102065.58
2019-04-29T08:34:24.853Z,102065.69
2019-04-29T08:36:53.797Z,102076.31
2019-04-29T08:39:25.101Z,102066.01
2019-04-29T08:41:51.634Z,102078.30
2019-04-29T08:44:36.035Z,102074.41
2019-04-29T08:47:23.655Z,102072.83
2019-04-29T08:49:48.691Z,102071.42
2019-04-29T08:52:17.674Z,102080.20
2019-04-29T08:54:46.576Z,102077.68
2019-04-29T08:57:15.517Z,102074.23
2019-04-29T08:59:44.522Z,102069.02
2019-04-29T09:02:13.510Z,102069.57
2019-04-29T09:04:53.324Z,102068.47
2019-04-29T09:07:12.654Z,102060.80
2019-04-29T09:09:40.256Z,102058.17
2019-04-29T09:12:09.159Z,102058.90
2019-04-29T09:14:38.100Z,102064.32
2019-04-29T09:17:19.724Z,102064.00
2019-04-29T09:19:39.159Z,102055.77
2019-04-29T09:22:05.274Z,102055.19
2019-04-29T09:24:34.260Z,102065.20
2019-04-29T09:27:09.583Z,102070.59
2019-04-29T09:29:37.715Z,102069.95
2019-04-29T09:32:06.643Z,102066.75
2019-04-29T09:34:35.567Z,102076.94
2019-04-29T09:37:04.530Z,102066.59
2019-04-29T09:39:43.075Z,102069.55
2019-04-29T09:42:24.265Z,102064.45
2019-04-29T09:45:10.638Z,102053.11
2019-04-29T09:47:39.552Z,102054.70
2019-04-29T09:50:08.484Z,102044.75
2019-04-29T09:52:37.411Z,102047.92
2019-04-29T09:55:06.337Z,102044.92
2019-04-29T09:57:35.258Z,102041.78
2019-04-29T10:00:08.702Z,102038.38
2019-04-29T10:03:09.044Z,102035.53
2019-04-29T10:05:43.638Z,102039.08
2019-04-29T10:08:12.546Z,102038.55
2019-04-29T10:10:41.436Z,102038.72
2019-04-29T10:13:10.354Z,102034.69
2019-04-29T10:15:50.882Z,102028.54
2019-04-29T10:18:24.911Z,102028.08
2019-04-29T10:20:59.115Z,102021.96
2019-04-29T10:23:28.030Z,102027.19
2019-04-29T10:25:56.941Z,102018.30
2019-04-29T10:28:25.914Z,102013.61
2019-04-29T10:30:54.839Z,102014.45
2019-04-29T10:33:23.909Z,102014.80
2019-04-29T10:35:52.840Z,102014.22
2019-04-29T10:38:21.740Z,101999.09
2019-04-29T10:41:21.722Z,102004.93
2019-04-29T10:44:09.330Z,101998.75
2019-04-29T10:47:09.554Z,102001.70
2019-04-29T10:50:00.313Z,101986.13
2019-04-29T10:52:29.242Z,101989.94
2019-04-29T10:54:58.175Z,101995.97
2019-04-29T10:57:29.238Z,101993.09
2019-04-29T11:00:01.122Z,101985.23
2019-04-29T11:02:37.500Z,101990.09
2019-04-29T11:05:30.996Z,101985.52
2019-04-29T11:08:04.352Z,101979.30
2019-04-29T11:10:32.292Z,101974.48
2019-04-29T11:13:01.268Z,101975.58
2019-04-29T11:15:32.672Z,101987.83
2019-04-29T11:18:03.477Z,101982.52
2019-04-29T11:20:29.984Z,101978.34
2019-04-29T11:23:21.044Z,101974.50
2019-04-29T11:26:02.449Z,101968.06
2019-04-29T11:28:31.397Z,101965.23
2019-04-29T11:31:00.333Z,101964.14
2019-04-29T11:33:52.369Z,101963.52
2019-04-29T11:36:23.614Z,101961.69
2019-04-29T11:38:52.534Z,101968.34
2019-04-29T11:41:21.476Z,101965.31
2019-04-29T11:43:50.996Z,101968.76
2019-04-29T11:46:21.027Z,101965.88
2019-04-29T11:48:48.195Z,101968.13
2019-04-29T11:51:24.635Z,101966.41
2019-04-29T11:53:53.532Z,101957.83
2019-04-29T11:56:22.484Z,101958.02
2019-04-29T11:58:57.092Z,101955.58
2019-04-29T12:01:59.681Z,101959.26
2019-04-29T12:04:38.189Z,101958.66
2019-04-29T12:07:07.084Z,101956.44
2019-04-29T12:09:35.973Z,101958.08
2019-04-29T12:12:07.860Z,101945.54
2019-04-29T12:14:52.952Z,101950.20
2019-04-29T12:17:29.621Z,101946.09
2019-04-29T12:20:00.356Z,101952.97
2019-04-29T12:22:30.983Z,101955.09
2019-04-29T12:24:58.190Z,101961.69
2019-04-29T12:27:29.161Z,101952.09
2019-04-29T12:29:59.435Z,101951.00
2019-04-29T12:32:48.475Z,101941.38
2019-04-29T12:35:51.156Z,101950.20
2019-04-29T12:38:20.261Z,101948.37
2019-04-29T12:41:02.733Z,101941.05
2019-04-29T12:43:54.072Z,101946.09
2019-04-29T12:46:37.121Z,101944.06
2019-04-29T12:49:08.693Z,101944.33
2019-04-29T12:51:34.933Z,101943.65
2019-04-29T12:54:03.850Z,101946.41
2019-04-29T12:56:34.103Z,101938.99
2019-04-29T12:59:03.108Z,101948.45
2019-04-29T13:01:54.129Z,101938.40
2019-04-29T13:04:36.140Z,101934.34
2019-04-29T13:07:12.871Z,101923.05
2019-04-29T13:09:43.076Z,101922.29
2019-04-29T13:12:19.716Z,101920.80
2019-04-29T13:15:01.812Z,101926.47
2019-04-29T13:17:30.419Z,101926.89
2019-04-29T13:20:07.338Z,101916.33
2019-04-29T13:22:32.298Z,101920.97
2019-04-29T13:25:01.191Z,101917.33
2019-04-29T13:27:30.147Z,101917.25
2019-04-29T13:29:59.128Z,101914.34
2019-04-29T13:32:29.894Z,101913.75
2019-04-29T13:35:00.303Z,101912.48
2019-04-29T13:37:26.812Z,101913.94
2019-04-29T13:39:55.888Z,101912.20
2019-04-29T13:42:24.687Z,101906.93
2019-04-29T13:45:06.101Z,101901.86
2019-04-29T13:47:50.097Z,101909.09
2019-04-29T13:50:38.171Z,101896.31
2019-04-29T13:52:50.362Z,101901.64
2019-04-29T13:55:45.935Z,101897.12
2019-04-29T13:57:49.655Z,101895.05
2019-04-29T14:00:37.084Z,101894.76
2019-04-29T14:03:11.762Z,101898.56
2019-04-29T14:05:41.460Z,101885.48
2019-04-29T14:08:07.275Z,101891.57
2019-04-29T14:10:36.193Z,101892.32
2019-04-29T14:13:11.992Z,101896.48
2019-04-29T14:15:38.039Z,101884.96
2019-04-29T14:18:06.901Z,101885.82
2019-04-29T14:20:31.790Z,101883.00
2019-04-29T14:23:00.779Z,101883.62
2019-04-29T14:25:29.684Z,101885.08
2019-04-29T14:27:58.580Z,101879.61
2019-04-29T14:30:38.455Z,101881.36
2019-04-29T14:32:57.765Z,101881.53
2019-04-29T14:35:36.195Z,101882.41
2019-04-29T14:38:05.106Z,101871.77
2019-04-29T14:40:31.801Z,101871.13
2019-04-29T14:43:28.620Z,101867.83
2019-04-29T14:46:15.714Z,101874.04
2019-04-29T14:48:42.898Z,101863.87
2019-04-29T14:51:10.612Z,101866.29
2019-04-29T14:53:39.517Z,101871.58
2019-04-29T14:56:08.431Z,101870.91
2019-04-29T14:58:37.413Z,101867.51
2019-04-29T15:01:28.376Z,101869.91
2019-04-29T15:04:16.761Z,101869.59
2019-04-29T15:06:30.827Z,101870.77
2019-04-29T15:08:59.733Z,101873.14
2019-04-29T15:11:32.695Z,101875.88
2019-04-29T15:14:23.705Z,101878.78
2019-04-29T15:16:50.961Z,101875.14
2019-04-29T15:19:37.499Z,101875.81
2019-04-29T15:22:08.961Z,101875.48
2019-04-29T15:24:37.896Z,101881.84
2019-04-29T15:27:06.802Z,101885.98
2019-04-29T15:29:35.716Z,101876.37
2019-04-29T15:32:04.613Z,101875.55
2019-04-29T15:34:33.522Z,101879.98
2019-04-29T15:37:02.429Z,101879.44
2019-04-29T15:39:31.349Z,101884.56
2019-04-29T15:42:01.902Z,101879.61
2019-04-29T15:44:29.181Z,101878.75
2019-04-29T15:46:58.034Z,101878.61
2019-04-29T15:49:27.004Z,101881.83
2019-04-29T15:51:55.860Z,101881.47
2019-04-29T15:54:26.128Z,101876.14
2019-04-29T15:56:53.725Z,101888.34
2019-04-29T15:59:22.574Z,101885.94
2019-04-29T16:01:51.463Z,101885.59
2019-04-29T16:04:27.797Z,101884.38
2019-04-29T16:07:27.721Z,101882.83
2019-04-29T16:10:20.576Z,101889.48
2019-04-29T16:12:50.948Z,101893.45
2019-04-29T16:15:15.485Z,101892.55
2019-04-29T16:17:44.382Z,101893.09
2019-04-29T16:20:13.270Z,101898.53
2019-04-29T16:22:42.213Z,101898.95
2019-04-29T16:25:12.916Z,101899.31
2019-04-29T16:30:08.960Z,101902.27
2019-04-29T16:32:40.290Z,101889.41
2019-04-29T16:35:09.616Z,101898.38
2019-04-29T16:37:38.499Z,101898.53
2019-04-29T16:40:07.526Z,101897.53
2019-04-29T16:42:54.088Z,101897.17
2019-04-29T16:45:25.767Z,101897.80
2019-04-29T16:47:54.646Z,101900.83
2019-04-29T16:50:23.539Z,101901.06
2019-04-29T16:52:52.446Z,101908.70
2019-04-29T16:55:21.492Z,101913.53
2019-04-29T16:57:50.336Z,101906.42
2019-04-29T17:00:22.058Z,101903.44
2019-04-29T17:02:50.999Z,101901.63
2019-04-29T17:05:19.948Z,101899.22
2019-04-29T17:07:48.862Z,101902.50
2019-04-29T17:10:39.614Z,101897.87
2019-04-29T17:13:08.998Z,101903.45
2019-04-29T17:15:37.453Z,101902.20
2019-04-29T17:18:06.439Z,101898.46
2019-04-29T17:20:35.358Z,101901.48
2019-04-29T17:23:04.306Z,101899.24
2019-04-29T17:25:33.238Z,101898.77
2019-04-29T17:28:24.131Z,101904.98
2019-04-29T17:31:11.679Z,101910.22
2019-04-29T17:33:49.158Z,101913.48
2019-04-29T17:35:15.774Z,101888.96
2019-04-29T17:36:09.655Z,101909.66
2019-04-29T17:38:38.571Z,101905.73
2019-04-29T17:41:07.505Z,101906.66
2019-04-29T17:43:52.188Z,101909.13
2019-04-29T17:46:43.208Z,101908.98
2019-04-29T17:49:16.243Z,101913.73
2019-04-29T17:51:45.898Z,101918.80
2019-04-29T17:54:15.898Z,101919.16
2019-04-29T17:57:24.526Z,101916.34
2019-04-29T17:59:56.019Z,101920.80
2019-04-29T18:02:42.585Z,101918.46
2019-04-29T18:05:52.117Z,101924.13
2019-04-29T18:08:27.566Z,101923.67
2019-04-29T18:10:59.917Z,101919.61
2019-04-29T18:13:26.482Z,101924.13
2019-04-29T18:16:01.620Z,101925.27
2019-04-29T18:18:30.554Z,101924.67
2019-04-29T18:21:15.639Z,101934.87
2019-04-29T18:23:56.783Z,101929.57
2019-04-29T18:26:44.239Z,101929.11
2019-04-29T18:29:10.185Z,101927.38
2019-04-29T18:31:39.086Z,101927.88
2019-04-29T18:34:07.988Z,101930.95
2019-04-29T18:36:36.886Z,101938.71
2019-04-29T18:39:06.110Z,101938.34
2019-04-29T18:41:35.473Z,101937.66
2019-04-29T18:44:05.299Z,101941.55
2019-04-29T18:46:35.029Z,101941.18
2019-04-29T18:49:03.188Z,101932.67
2019-04-29T18:51:30.695Z,101937.56
2019-04-29T18:53:59.596Z,101945.94
2019-04-29T18:56:32.330Z,101942.31
2019-04-29T18:58:57.434Z,101940.39
2019-04-29T19:01:28.819Z,101946.73
2019-04-29T19:04:17.338Z,101946.30
2019-04-29T19:06:43.278Z,101948.80
2019-04-29T19:09:20.149Z,101945.56
2019-04-29T19:11:41.123Z,101943.57
2019-04-29T19:14:10.120Z,101954.17
2019-04-29T19:16:39.577Z,101954.25
2019-04-29T19:19:07.898Z,101947.03
2019-04-29T19:21:36.774Z,101954.11
2019-04-29T19:24:05.690Z,101957.84
2019-04-29T19:26:35.056Z,101961.92
2019-04-29T19:29:06.259Z,101966.63
2019-04-29T19:31:36.900Z,101969.37
2019-04-29T19:34:01.460Z,101969.05
2019-04-29T19:36:30.217Z,101974.27
2019-04-29T19:38:59.122Z,101972.91
2019-04-29T19:41:28.075Z,101980.21
2019-04-29T19:43:56.983Z,101972.59
2019-04-29T19:46:36.841Z,101983.38
2019-04-29T19:48:59.274Z,101987.62
2019-04-29T19:51:25.577Z,101986.03
2019-04-29T19:53:52.551Z,101989.41
2019-04-29T19:56:24.351Z,101987.39
2019-04-29T19:58:50.926Z,101987.63
2019-04-29T20:01:29.771Z,101980.74
2019-04-29T20:04:01.568Z,101985.41
2019-04-29T20:06:30.820Z,101990.66
2019-04-29T20:09:02.100Z,101992.19
2019-04-29T20:11:32.743Z,101998.50
2019-04-29T20:14:04.879Z,102001.36
2019-04-29T20:16:43.303Z,102000.38
2019-04-29T20:19:27.266Z,101987.41
2019-04-29T20:21:55.884Z,101993.34
2019-04-29T20:24:23.713Z,101993.43
2019-04-29T20:26:51.948Z,101995.53
2019-04-29T20:29:20.951Z,101984.02
2019-04-29T20:31:53.285Z,101994.86
2019-04-29T20:34:23.919Z,101997.02
2019-04-29T20:36:47.631Z,101996.40
2019-04-29T20:39:23.044Z,101999.99
2019-04-29T20:41:48.736Z,101999.13
2019-04-29T20:44:16.007Z,102001.85
2019-04-29T20:47:00.755Z,101997.06
2019-04-29T20:49:12.234Z,101998.52
2019-04-29T20:51:51.596Z,101994.71
2019-04-29T20:54:18.768Z,101994.97
2019-04-29T20:56:42.223Z,101997.56
2019-04-29T20:59:12.774Z,102001.28
2019-04-29T21:01:43.314Z,101998.96
2019-04-29T21:04:09.136Z,101997.48
2019-04-29T21:06:47.337Z,101994.14
2019-04-29T21:09:07.441Z,101995.73
2019-04-29T21:11:58.958Z,101999.78
2019-04-29T21:14:34.041Z,101998.06
2019-04-29T21:17:02.143Z,101999.33
2019-04-29T21:19:29.011Z,102002.42
2019-04-29T21:21:57.912Z,102001.69
2019-04-29T21:24:26.826Z,101995.53
2019-04-29T21:26:57.439Z,101994.80
2019-04-29T21:29:25.567Z,101999.37
2019-04-29T21:31:58.385Z,101998.17
2019-04-29T21:34:22.669Z,102000.15
2019-04-29T21:37:01.627Z,101995.84
2019-04-29T21:40:07.135Z,101996.44
2019-04-29T21:42:47.328Z,101993.47
2019-04-29T21:45:17.461Z,101997.70
2019-04-29T21:47:51.808Z,101997.58
2019-04-29T21:50:15.208Z,101996.59
2019-04-29T21:52:42.874Z,101990.74
2019-04-29T21:55:11.785Z,101994.33
2019-04-29T21:57:40.708Z,101989.37
2019-04-29T22:00:09.731Z,101990.03
2019-04-29T22:02:41.414Z,101995.20
2019-04-29T22:05:09.671Z,101992.35
2019-04-29T22:07:39.784Z,101988.77
2019-04-29T22:10:05.769Z,101992.10
2019-04-29T22:12:34.839Z,101996.44
2019-04-29T22:15:05.803Z,101995.69
2019-04-29T22:17:35.597Z,101989.01
2019-04-29T22:20:04.176Z,101987.28
2019-04-29T22:22:35.047Z,101986.71
2019-04-29T22:25:05.958Z,101983.94
2019-04-29T22:27:28.712Z,101989.87
2019-04-29T22:29:57.629Z,101986.81
2019-04-29T22:32:26.515Z,101992.40
2019-04-29T22:35:00.854Z,101988.52
2019-04-29T22:37:25.485Z,101985.92
2019-04-29T22:39:53.263Z,101984.55
2019-04-29T22:42:29.078Z,101988.64
2019-04-29T22:45:00.589Z,101989.75
2019-04-29T22:47:26.849Z,101991.48
2019-04-29T22:49:58.636Z,101987.80
2019-04-29T22:52:25.434Z,101987.68
2019-04-29T22:54:57.905Z,101984.83
2019-04-29T22:57:22.978Z,101982.36
2019-04-29T22:59:54.062Z,101979.52
2019-04-29T23:02:25.184Z,101985.27
2019-04-29T23:04:53.675Z,101981.89
2019-04-29T23:07:22.113Z,101978.40
2019-04-29T23:09:47.959Z,101977.53
2019-04-29T23:12:18.557Z,101972.62
2019-04-29T23:14:45.741Z,101974.20
2019-04-29T23:17:15.655Z,101969.52
2019-04-29T23:19:46.574Z,101965.56
2019-04-29T23:22:34.497Z,101966.65
2019-04-29T23:25:10.148Z,101971.50
2019-04-29T23:27:39.099Z,101968.66
2019-04-29T23:30:08.015Z,101974.72
2019-04-29T23:32:39.493Z,101963.95
2019-04-29T23:35:09.772Z,101964.45
2019-04-29T23:37:35.865Z,101957.77
2019-04-29T23:40:05.875Z,101964.23
2019-04-29T23:42:34.194Z,101955.91
2019-04-29T23:45:05.169Z,101956.28
2019-04-29T23:47:32.168Z,101948.36
2019-04-29T23:50:01.112Z,101952.08
2019-04-29T23:52:30.030Z,101951.09
2019-04-29T23:54:58.961Z,101954.06
2019-04-29T23:57:49.842Z,101948.52
